Time;durP1;ratioP1;P1;durP2;ratioP2;P2;SDS_P1;SDS_P2;PMS_P1;PMS_P2;Temp;Humidity;BMP_temperature;BMP_pressure;BME280_temperature;BME280_humidity;BME280_pressure;Samples;Min_cycle;Max_cycle;Signal;HPM_P1;HPM_P2
2021/08/12 00:01:29;;;;;;;10.25;5.60;;;;;;;16.73;95.40;96671.84;5070363;28;20317;-77
2021/08/12 00:03:55;;;;;;;8.25;5.22;;;;;;;16.76;95.44;96673.31;5074192;28;20070;-77
2021/08/12 00:06:21;;;;;;;10.98;5.97;;;;;;;16.67;95.28;96673.41;5088597;28;20028;-78
2021/08/12 00:08:46;;;;;;;9.02;5.85;;;;;;;16.59;95.81;96670.84;5065386;28;20138;-77
2021/08/12 00:11:12;;;;;;;11.13;5.97;;;;;;;16.56;96.09;96668.56;5077154;28;20032;-77
2021/08/12 00:13:38;;;;;;;11.07;6.20;;;;;;;16.54;96.29;96664.47;5103729;28;20041;-77
2021/08/12 00:16:05;;;;;;;8.25;5.55;;;;;;;16.54;96.38;96664.47;5070840;28;20107;-78
2021/08/12 00:18:31;;;;;;;7.78;5.45;;;;;;;16.56;96.21;96663.25;5072752;28;20060;-77
2021/08/12 00:20:57;;;;;;;9.38;5.65;;;;;;;16.59;95.68;96657.59;5071497;28;20036;-77
2021/08/12 00:23:23;;;;;;;9.13;5.45;;;;;;;16.63;95.43;96658.03;5074095;28;20034;-77
2021/08/12 00:25:49;;;;;;;8.82;5.50;;;;;;;16.66;95.02;96657.66;5092215;28;20386;-77
2021/08/12 00:28:15;;;;;;;9.65;5.25;;;;;;;16.69;95.03;96659.94;5079075;28;20028;-78
2021/08/12 00:30:41;;;;;;;9.18;6.07;;;;;;;16.66;95.09;96660.31;5050714;28;20045;-77
2021/08/12 00:33:06;;;;;;;9.10;5.38;;;;;;;16.68;95.21;96659.13;5077918;28;20041;-78
2021/08/12 00:35:33;;;;;;;10.68;6.10;;;;;;;16.56;96.04;96657.94;5091664;28;20038;-77
2021/08/12 00:38:01;;;;;;;11.52;5.63;;;;;;;16.56;96.25;96665.91;5054231;28;20098;-77
2021/08/12 00:40:29;;;;;;;9.55;5.65;;;;;;;16.46;96.85;96660.94;5054560;28;20029;-77
2021/08/12 00:42:55;;;;;;;13.90;6.60;;;;;;;16.51;96.62;96665.66;5057987;28;20020;-77
2021/08/12 00:45:21;;;;;;;9.07;6.05;;;;;;;16.56;96.37;96665.91;5071089;28;20032;-77
2021/08/12 00:47:48;;;;;;;10.52;5.95;;;;;;;16.50;96.42;96666.69;5070800;28;20047;-77
2021/08/12 00:50:14;;;;;;;9.18;5.45;;;;;;;16.47;96.45;96664.41;5064662;28;20028;-77
2021/08/12 00:52:43;;;;;;;11.68;6.40;;;;;;;16.44;96.77;96664.78;5070104;28;20035;-78
2021/08/12 00:55:09;;;;;;;11.75;6.30;;;;;;;16.44;96.88;96665.59;5053474;28;20497;-77
2021/08/12 00:57:36;;;;;;;9.90;6.20;;;;;;;16.45;96.87;96661.91;5053863;28;20032;-77
2021/08/12 01:00:06;;;;;;;10.35;6.00;;;;;;;16.45;96.63;96658.44;5068396;28;20044;-77
2021/08/12 01:02:34;;;;;;;9.50;6.25;;;;;;;16.48;96.58;96664.19;5060711;28;20082;-77
2021/08/12 01:05:02;;;;;;;9.60;5.18;;;;;;;16.56;96.10;96662.44;5069734;28;20063;-77
2021/08/12 01:07:38;;;;;;;8.80;6.03;;;;;;;16.46;95.48;96658.28;5053029;28;20024;-77
2021/08/12 01:10:17;;;;;;;13.02;5.70;;;;;;;16.49;96.13;96657.06;5053419;28;20035;-77
2021/08/12 01:12:56;;;;;;;9.73;5.80;;;;;;;16.40;96.51;96661.66;5086518;28;20066;-77
2021/08/12 01:15:29;;;;;;;9.15;6.63;;;;;;;16.33;96.84;96658.09;5068222;28;20033;-77
2021/08/12 01:18:26;;;;;;;8.63;5.70;;;;;;;16.39;96.57;96664.47;5077041;28;20759;-78
2021/08/12 01:21:13;;;;;;;10.38;6.70;;;;;;;16.25;97.20;96656.34;5084204;28;20037;-77
2021/08/12 01:23:40;;;;;;;9.27;6.30;;;;;;;16.25;97.58;96666.97;5087549;28;20047;-77
2021/08/12 01:26:08;;;;;;;10.85;6.20;;;;;;;16.21;98.03;96672.84;5087307;28;20040;-77
2021/08/12 01:28:42;;;;;;;9.32;6.07;;;;;;;16.22;97.62;96664.69;5051184;28;20104;-77
2021/08/12 01:31:18;;;;;;;11.15;6.70;;;;;;;16.25;97.58;96666.97;5059151;28;20039;-77
2021/08/12 01:34:03;;;;;;;10.60;6.57;;;;;;;16.22;97.43;96669.97;5065268;28;20036;-77
2021/08/12 01:36:34;;;;;;;11.05;5.90;;;;;;;16.17;97.63;96664.41;5067051;28;20033;-77
2021/08/12 01:39:03;;;;;;;8.75;6.18;;;;;;;16.18;97.80;96666.06;5076576;28;20397;-77
2021/08/12 01:41:29;;;;;;;10.38;6.93;;;;;;;16.13;98.36;96668.47;5052298;28;20036;-77
2021/08/12 01:43:57;;;;;;;11.43;5.72;;;;;;;16.20;97.41;96671.19;5081291;28;20036;-77
2021/08/12 01:46:25;;;;;;;12.57;5.90;;;;;;;16.22;96.90;96669.97;5067882;28;20036;-78
2021/08/12 01:48:53;;;;;;;8.70;5.78;;;;;;;16.20;97.26;96666.72;5068840;28;20050;-77
2021/08/12 01:51:21;;;;;;;8.23;6.10;;;;;;;16.23;96.95;96663.69;5068951;28;20085;-77
2021/08/12 01:53:48;;;;;;;8.60;5.82;;;;;;;16.25;96.38;96672.28;5068758;28;20033;-77
2021/08/12 01:56:15;;;;;;;10.50;6.10;;;;;;;16.24;96.44;96667.97;5055431;28;20123;-77
2021/08/12 01:58:43;;;;;;;11.18;5.95;;;;;;;16.23;96.50;96663.69;5073933;28;20438;-77
2021/08/12 02:01:10;;;;;;;8.02;5.88;;;;;;;16.14;97.38;96672.75;5054052;28;20032;-77
2021/08/12 02:03:36;;;;;;;10.55;6.10;;;;;;;16.08;97.54;96662.88;5066937;28;20044;-77
2021/08/12 02:06:03;;;;;;;9.57;6.00;;;;;;;16.03;97.89;96662.59;5075758;28;20370;-77
2021/08/12 02:08:30;;;;;;;9.68;6.63;;;;;;;15.90;98.51;96657.09;5062172;28;20033;-77
2021/08/12 02:10:56;;;;;;;9.13;6.05;;;;;;;15.81;99.62;96652.88;5058725;28;20028;-77
2021/08/12 02:13:25;;;;;;;10.40;6.18;;;;;;;15.73;100.00;96651.97;5046702;28;20120;-77
2021/08/12 02:15:52;;;;;;;12.75;6.57;;;;;;;15.70;100.00;96652.31;5068034;28;20060;-77
2021/08/12 02:18:18;;;;;;;10.88;6.75;;;;;;;15.70;100.00;96652.31;5070593;28;20067;-77
2021/08/12 02:20:53;;;;;;;10.20;6.40;;;;;;;15.68;100.00;96656.97;5072199;28;20028;-77
2021/08/12 02:23:43;;;;;;;11.02;6.80;;;;;;;15.66;100.00;96658.13;5071572;28;20086;-77
2021/08/12 02:26:19;;;;;;;9.70;6.22;;;;;;;15.62;100.00;96654.19;5068551;28;20033;-77
2021/08/12 02:28:46;;;;;;;10.95;6.53;;;;;;;15.58;100.00;96648.44;5078726;28;20043;-78
2021/08/12 02:31:17;;;;;;;11.10;6.30;;;;;;;15.59;100.00;96649.25;5062250;28;20060;-77
2021/08/12 02:33:46;;;;;;;9.25;6.93;;;;;;;15.59;100.00;96638.63;5051551;28;20035;-78
2021/08/12 02:36:13;;;;;;;9.05;6.32;;;;;;;15.63;100.00;96645.25;5069438;28;20109;-77
2021/08/12 02:38:41;;;;;;;9.88;6.75;;;;;;;15.64;100.00;96642.41;5076208;28;20063;-77
2021/08/12 02:41:13;;;;;;;8.70;5.65;;;;;;;15.65;100.00;96644.03;5070212;28;20036;-78
2021/08/12 02:43:40;;;;;;;9.23;6.43;;;;;;;15.69;100.00;96642.72;5077700;28;20028;-76
2021/08/12 02:46:08;;;;;;;12.67;6.87;;;;;;;15.66;100.00;96639.56;5058831;28;20036;-77
2021/08/12 02:48:35;;;;;;;10.52;6.85;;;;;;;15.60;100.00;96637.66;5077217;28;20457;-77
2021/08/12 02:51:04;;;;;;;10.77;6.90;;;;;;;15.56;100.00;96631.91;5068266;28;20016;-77
2021/08/12 02:53:32;;;;;;;12.32;7.13;;;;;;;15.54;100.00;96626.75;5076326;28;20023;-77
2021/08/12 02:56:02;;;;;;;10.98;6.85;;;;;;;15.48;100.00;96626.66;5051342;28;20128;-77
2021/08/12 02:58:32;;;;;;;9.48;6.68;;;;;;;15.45;100.00;96627.00;5051336;28;20032;-78
2021/08/12 03:01:03;;;;;;;12.30;6.97;;;;;;;15.50;100.00;96633.44;5064319;28;20116;-77
2021/08/12 03:03:30;;;;;;;9.52;6.75;;;;;;;15.45;100.00;96627.00;5045704;28;20036;-77
2021/08/12 03:05:58;;;;;;;11.30;6.17;;;;;;;15.43;100.00;96623.75;5054520;28;20618;-77
2021/08/12 03:08:26;;;;;;;10.23;6.65;;;;;;;15.42;100.00;96632.66;5079628;28;20660;-77
2021/08/12 03:10:54;;;;;;;11.35;6.38;;;;;;;15.41;100.00;96631.03;5087857;28;20472;-77
2021/08/12 03:13:20;;;;;;;13.98;7.65;;;;;;;15.32;100.00;96636.41;5070942;28;20024;-77
2021/08/12 03:15:46;;;;;;;10.52;7.10;;;;;;;15.30;100.00;96634.94;5072954;28;20028;-77
2021/08/12 03:18:12;;;;;;;10.48;6.63;;;;;;;15.27;100.00;96646.72;5050513;28;20040;-77
2021/08/12 03:20:42;;;;;;;11.55;6.32;;;;;;;15.30;100.00;96635.75;5067687;28;20198;-77
2021/08/12 03:23:10;;;;;;;11.10;6.47;;;;;;;15.34;100.00;96641.53;5073860;28;20034;-77
2021/08/12 03:25:36;;;;;;;12.00;7.10;;;;;;;15.27;100.00;96640.59;5051323;28;20469;-77
2021/08/12 03:28:03;;;;;;;10.25;7.15;;;;;;;15.21;100.00;96644.78;5038024;28;20390;-78
2021/08/12 03:30:29;;;;;;;8.88;6.50;;;;;;;15.14;100.00;96637.72;5074358;28;20028;-77
2021/08/12 03:32:55;;;;;;;10.98;7.50;;;;;;;15.13;100.00;96634.25;5067651;28;20389;-77
2021/08/12 03:35:21;;;;;;;9.93;6.82;;;;;;;15.09;100.00;96640.91;5067029;28;20023;-78
2021/08/12 03:37:48;;;;;;;12.85;6.97;;;;;;;15.09;100.00;96638.28;5066328;28;20028;-77
2021/08/12 03:40:14;;;;;;;11.13;7.18;;;;;;;15.12;100.00;96637.88;5068145;28;20024;-77
2021/08/12 03:42:40;;;;;;;12.53;7.40;;;;;;;15.08;100.00;96632.13;5066833;28;20059;-77
2021/08/12 03:45:07;;;;;;;11.27;7.65;;;;;;;15.04;100.00;96622.88;5079534;28;20028;-77
2021/08/12 03:47:32;;;;;;;12.07;7.10;;;;;;;15.03;100.00;96625.72;5067354;28;20055;-77
2021/08/12 03:49:59;;;;;;;12.90;7.53;;;;;;;15.00;100.00;96618.13;5074785;28;20493;-77
2021/08/12 03:52:24;;;;;;;11.60;7.10;;;;;;;15.04;100.00;96619.41;5066760;28;20020;-78
2021/08/12 03:54:51;;;;;;;11.23;7.07;;;;;;;15.07;100.00;96627.84;5086830;28;20065;-77
2021/08/12 03:57:16;;;;;;;10.60;7.18;;;;;;;15.10;100.00;96621.38;5076128;28;20033;-77
2021/08/12 03:59:42;;;;;;;11.70;7.30;;;;;;;15.11;100.00;96615.06;5066966;28;20514;-77
2021/08/12 04:02:08;;;;;;;9.98;6.45;;;;;;;15.11;100.00;96620.34;5048976;28;20490;-78
2021/08/12 04:04:34;;;;;;;9.27;6.53;;;;;;;15.09;100.00;96617.06;5060310;28;20021;-77
2021/08/12 04:06:59;;;;;;;11.20;7.00;;;;;;;15.10;100.00;96621.38;5075593;28;20024;-77
2021/08/12 04:09:27;;;;;;;9.67;7.00;;;;;;;15.07;100.00;96619.88;5075024;28;20106;-77
2021/08/12 04:11:52;;;;;;;9.33;6.23;;;;;;;15.11;100.00;96620.34;5078201;28;20446;-77
2021/08/12 04:14:18;;;;;;;11.63;6.28;;;;;;;15.13;100.00;96615.72;5071755;28;20047;-77
2021/08/12 04:16:44;;;;;;;9.63;6.00;;;;;;;15.14;100.00;96624.47;5077072;28;20036;-77
2021/08/12 04:19:12;;;;;;;10.50;6.28;;;;;;;15.15;100.00;96623.47;5072836;28;20028;-77
2021/08/12 04:21:38;;;;;;;9.27;6.30;;;;;;;15.12;100.00;96622.00;5049811;28;20062;-78
2021/08/12 04:24:04;;;;;;;11.38;6.63;;;;;;;15.11;100.00;96628.28;5071815;28;20064;-77
2021/08/12 04:26:30;;;;;;;9.70;6.32;;;;;;;15.09;100.00;96633.78;5085705;28;20173;-77
2021/08/12 04:28:57;;;;;;;10.18;6.85;;;;;;;15.15;100.00;96621.63;5066602;28;20020;-78
2021/08/12 04:31:24;;;;;;;9.30;6.20;;;;;;;15.15;100.00;96624.28;5069888;28;20040;-77
2021/08/12 04:33:50;;;;;;;11.88;6.35;;;;;;;15.22;100.00;96625.22;5074992;28;20039;-77
2021/08/12 04:36:16;;;;;;;10.98;6.90;;;;;;;15.25;100.00;96634.63;5067073;28;20140;-77
2021/08/12 04:38:42;;;;;;;9.73;7.03;;;;;;;15.31;100.00;96625.97;5068039;28;20040;-78
2021/08/12 04:41:08;;;;;;;9.70;6.43;;;;;;;15.40;99.96;96621.44;5059949;28;20120;-77
2021/08/12 04:43:35;;;;;;;11.07;6.72;;;;;;;15.44;99.82;96620.91;5066836;28;20037;-77
2021/08/12 04:46:02;;;;;;;11.30;7.18;;;;;;;15.46;99.77;96626.00;5055076;28;20471;-77
2021/08/12 04:48:28;;;;;;;15.20;9.43;;;;;;;15.52;99.34;96627.94;5078786;28;20028;-77
2021/08/12 04:50:54;;;;;;;19.00;14.45;;;;;;;15.60;98.85;96622.56;5071920;28;20438;-77
2021/08/12 04:53:20;;;;;;;17.25;11.70;;;;;;;15.67;98.45;96628.81;5037611;28;20028;-78
2021/08/12 04:55:46;;;;;;;11.00;7.63;;;;;;;15.74;97.89;96635.03;5055358;28;20410;-78
2021/08/12 04:58:12;;;;;;;9.00;6.63;;;;;;;15.81;97.71;96627.19;5101096;28;20031;-77
2021/08/12 05:00:38;;;;;;;8.77;6.22;;;;;;;15.87;97.52;96631.75;5060177;28;20110;-77
2021/08/12 05:03:04;;;;;;;7.85;5.57;;;;;;;15.92;97.74;96636.50;5056829;28;20032;-77
2021/08/12 05:05:32;;;;;;;9.68;6.07;;;;;;;15.91;97.36;96640.19;5057755;28;20024;-77
2021/08/12 05:07:59;;;;;;;11.93;6.20;;;;;;;16.05;97.28;96639.34;5077339;28;20024;-77
2021/08/12 05:10:25;;;;;;;7.72;5.93;;;;;;;16.13;97.07;96639.28;5048271;28;20052;-78
2021/08/12 05:12:52;;;;;;;9.02;6.20;;;;;;;16.14;97.26;96634.78;5072706;28;20060;-77
2021/08/12 05:15:17;;;;;;;8.18;5.28;;;;;;;16.18;95.75;96631.56;5041509;28;20432;-78
2021/08/12 05:17:43;;;;;;;12.68;6.82;;;;;;;16.35;94.98;96640.16;5059989;28;20039;-78
2021/08/12 05:20:10;;;;;;;8.25;5.63;;;;;;;16.58;94.08;96641.84;5073662;28;20028;-78
2021/08/12 05:22:36;;;;;;;9.75;5.57;;;;;;;16.84;93.41;96646.66;5070168;28;20498;-77
2021/08/12 05:25:04;;;;;;;10.93;5.80;;;;;;;16.99;91.76;96642.09;5065306;28;20054;-77
2021/08/12 05:27:30;;;;;;;10.90;5.95;;;;;;;16.96;91.56;96642.47;5059877;28;20437;-78
2021/08/12 05:29:56;;;;;;;10.75;5.65;;;;;;;17.37;90.93;96632.03;5056905;28;20028;-78
2021/08/12 05:32:22;;;;;;;7.95;5.13;;;;;;;17.58;89.61;96633.84;5048163;28;20039;-77
2021/08/12 05:34:48;;;;;;;8.35;5.38;;;;;;;17.88;89.27;96636.31;5064267;28;20079;-77
2021/08/12 05:37:13;;;;;;;10.35;5.72;;;;;;;18.18;87.91;96638.75;5061585;28;20090;-77
2021/08/12 05:39:43;;;;;;;10.73;6.00;;;;;;;18.58;84.95;96637.91;5059536;28;20035;-78
2021/08/12 05:42:09;;;;;;;9.73;5.55;;;;;;;18.27;84.20;96630.38;5067957;28;20036;-77
2021/08/12 05:44:35;;;;;;;10.68;5.22;;;;;;;18.23;85.66;96639.78;5067097;28;20028;-77
2021/08/12 05:47:02;;;;;;;8.25;5.07;;;;;;;18.54;83.91;96636.66;5065994;28;20039;-77
2021/08/12 05:49:28;;;;;;;8.85;4.85;;;;;;;18.83;81.76;96640.06;5056710;28;20036;-77
2021/08/12 05:51:54;;;;;;;7.80;5.55;;;;;;;18.47;82.74;96638.44;5066150;28;20026;-77
2021/08/12 05:54:20;;;;;;;9.48;5.32;;;;;;;18.35;83.50;96632.88;5051015;28;20077;-77
2021/08/12 05:56:48;;;;;;;7.55;5.03;;;;;;;18.70;81.93;96637.31;5073156;28;20028;-77
2021/08/12 05:59:13;;;;;;;8.07;5.22;;;;;;;19.32;79.96;96636.25;5068595;28;20028;-77
2021/08/12 06:01:40;;;;;;;11.43;5.15;;;;;;;19.53;78.87;96633.38;5071375;28;20044;-76
2021/08/12 06:04:06;;;;;;;10.73;5.93;;;;;;;19.74;78.09;96636.88;5065552;28;20028;-77
2021/08/12 06:06:32;;;;;;;9.98;5.25;;;;;;;20.15;76.25;96641.09;5067415;28;20040;-77
2021/08/12 06:08:58;;;;;;;9.20;5.30;;;;;;;19.38;79.64;96642.59;5068111;28;20028;-77
2021/08/12 06:11:24;;;;;;;8.52;5.15;;;;;;;18.97;81.38;96655.03;5066103;28;20044;-78
2021/08/12 06:13:50;;;;;;;9.27;5.30;;;;;;;19.57;80.05;96651.63;5054444;28;20025;-77
2021/08/12 06:16:16;;;;;;;11.25;4.65;;;;;;;19.91;78.84;96653.25;5067290;28;20032;-78
2021/08/12 06:18:42;;;;;;;9.05;5.63;;;;;;;19.65;79.17;96654.09;5081530;28;20544;-77
2021/08/12 06:21:10;;;;;;;8.35;5.13;;;;;;;20.29;77.39;96657.91;5047531;28;20035;-77
2021/08/12 06:23:36;;;;;;;8.02;4.65;;;;;;;20.94;73.20;96658.69;5061306;28;20033;-77
2021/08/12 06:26:04;;;;;;;7.53;4.60;;;;;;;21.31;72.16;96654.34;5069719;28;20040;-78
2021/08/12 06:28:31;;;;;;;8.52;4.85;;;;;;;21.56;70.82;96650.91;5073688;28;20043;-77
2021/08/12 06:30:59;;;;;;;11.15;4.78;;;;;;;21.52;71.08;96655.88;5056300;28;20039;-77
2021/08/12 06:33:25;;;;;;;9.98;4.43;;;;;;;21.16;72.48;96659.19;5067663;28;20047;-77
2021/08/12 06:35:52;;;;;;;10.10;4.72;;;;;;;21.67;71.72;96652.88;5049192;28;20025;-77
2021/08/12 06:38:17;;;;;;;10.55;5.43;;;;;;;21.45;72.73;96649.75;5066662;28;20404;-77
2021/08/12 06:40:44;;;;;;;7.70;4.75;;;;;;;21.09;74.24;96656.56;5068994;28;20060;-77
2021/08/12 06:43:10;;;;;;;8.20;4.88;;;;;;;21.02;74.61;96652.28;5053122;28;20762;-78
2021/08/12 06:45:51;;;;;;;7.95;4.60;;;;;;;21.06;73.88;96651.66;5066511;28;20036;-78
2021/08/12 06:48:17;;;;;;;10.65;5.43;;;;;;;21.11;74.76;96649.13;5074753;28;20172;-78
2021/08/12 06:50:43;;;;;;;8.95;4.72;;;;;;;20.76;76.48;96659.41;5066107;28;20062;-77
2021/08/12 06:53:09;;;;;;;9.80;4.70;;;;;;;20.77;77.55;96650.34;5052338;28;20027;-78
2021/08/12 06:55:35;;;;;;;7.97;4.57;;;;;;;20.54;79.46;96642.84;5065833;28;20029;-77
2021/08/12 06:58:02;;;;;;;6.40;4.50;;;;;;;20.84;77.37;96661.03;5071595;28;20109;-77
2021/08/12 07:00:28;;;;;;;8.55;4.72;;;;;;;21.02;75.93;96660.28;5091974;28;20027;-77
2021/08/12 07:02:54;;;;;;;14.05;6.95;;;;;;;21.34;73.51;96658.44;5053064;28;20024;-78
2021/08/12 07:05:22;;;;;;;13.05;6.80;;;;;;;21.99;69.98;96650.09;5064066;28;20464;-78
2021/08/12 07:07:48;;;;;;;8.57;4.80;;;;;;;22.21;67.99;96643.31;5046931;28;20032;-78
2021/08/12 07:10:16;;;;;;;7.13;3.63;;;;;;;22.10;68.22;96644.84;5076003;28;20250;-77
2021/08/12 07:12:41;;;;;;;7.65;3.85;;;;;;;22.99;64.96;96644.47;5041607;28;20021;-78
2021/08/12 07:15:08;;;;;;;11.23;3.78;;;;;;;23.66;63.14;96638.91;5050481;28;20034;-77
2021/08/12 07:17:35;;;;;;;7.82;4.05;;;;;;;23.60;63.62;96637.94;5047229;28;20041;-77
2021/08/12 07:20:03;;;;;;;9.02;4.35;;;;;;;23.62;64.15;96638.53;5060777;28;20036;-78
2021/08/12 07:22:29;;;;;;;6.78;4.10;;;;;;;23.65;61.91;96640.78;5068170;28;20021;-77
2021/08/12 07:24:55;;;;;;;7.57;4.43;;;;;;;23.81;61.52;96641.97;5072382;28;20535;-77
2021/08/12 07:27:20;;;;;;;11.00;4.30;;;;;;;24.43;61.23;96636.09;5081322;28;20107;-77
2021/08/12 07:29:47;;;;;;;7.03;4.05;;;;;;;25.09;58.35;96637.41;5061166;28;20128;-77
2021/08/12 07:32:13;;;;;;;8.48;4.03;;;;;;;24.43;58.96;96636.91;5076157;28;20028;-77
2021/08/12 07:34:45;;;;;;;7.53;4.30;;;;;;;24.37;58.64;96645.09;5055085;28;20445;-77
2021/08/12 07:37:11;;;;;;;6.72;3.67;;;;;;;24.22;59.86;96641.03;5061977;28;20036;-78
2021/08/12 07:39:37;;;;;;;7.43;4.25;;;;;;;24.64;59.48;96642.72;5062311;28;20021;-78
2021/08/12 07:42:04;;;;;;;8.07;4.22;;;;;;;25.06;57.79;96640.56;5050409;28;20043;-77
2021/08/12 07:44:31;;;;;;;8.27;4.10;;;;;;;25.63;55.82;96643.19;5042858;28;20033;-79
2021/08/12 07:46:57;;;;;;;9.68;3.35;;;;;;;25.77;55.16;96643.69;5064909;28;20035;-78
2021/08/12 07:49:23;;;;;;;7.93;3.85;;;;;;;25.25;56.93;96645.75;5065035;28;20037;-78
2021/08/12 07:51:49;;;;;;;7.18;3.90;;;;;;;25.19;57.27;96647.56;5067543;28;20020;-79
2021/08/12 07:54:14;;;;;;;10.45;4.20;;;;;;;25.28;56.33;96640.72;5067045;28;20397;-78
2021/08/12 07:56:40;;;;;;;9.45;3.92;;;;;;;25.24;56.54;96638.75;5056925;28;20486;-78
2021/08/12 07:59:05;;;;;;;6.28;3.40;;;;;;;25.82;55.03;96640.28;5067128;28;20115;-77
2021/08/12 08:01:31;;;;;;;6.45;3.85;;;;;;;26.02;53.51;96628.97;5066840;28;20033;-77
2021/08/12 08:03:59;;;;;;;8.95;3.40;;;;;;;25.97;53.44;96637.81;5061227;28;20481;-78
2021/08/12 08:06:25;;;;;;;8.43;3.72;;;;;;;26.62;51.72;96624.69;5068327;28;20074;-79
2021/08/12 08:08:51;;;;;;;7.90;3.60;;;;;;;27.18;50.51;96631.53;5056549;28;20037;-78
2021/08/12 08:11:17;;;;;;;5.30;3.03;;;;;;;26.71;50.95;96629.38;5051163;28;20032;-78
2021/08/12 08:13:44;;;;;;;6.15;3.47;;;;;;;27.20;50.61;96628.59;5067231;28;20060;-79
2021/08/12 08:16:09;;;;;;;8.18;3.15;;;;;;;27.45;49.77;96636.91;5044721;28;20028;-78
2021/08/12 08:18:36;;;;;;;8.15;3.30;;;;;;;28.20;48.09;96628.81;5054985;28;20043;-78
2021/08/12 08:21:02;;;;;;;6.40;3.60;;;;;;;28.37;47.15;96626.78;5063162;28;20123;-77
2021/08/12 08:23:28;;;;;;;9.05;4.03;;;;;;;26.75;50.88;96635.09;5049182;28;20498;-78
2021/08/12 08:25:54;;;;;;;7.82;4.00;;;;;;;27.54;49.85;96625.66;5079457;28;20902;-78
2021/08/12 08:28:20;;;;;;;12.52;4.18;;;;;;;27.85;48.53;96632.94;5072662;28;20035;-78
2021/08/12 08:30:45;;;;;;;6.85;3.97;;;;;;;28.17;47.53;96627.47;5062516;28;20040;-78
2021/08/12 08:33:12;;;;;;;8.07;3.80;;;;;;;28.26;47.02;96629.66;5077631;28;20028;-78
2021/08/12 08:35:39;;;;;;;5.97;3.60;;;;;;;27.66;49.49;96628.97;5062067;28;20028;-78
2021/08/12 08:38:05;;;;;;;6.07;3.75;;;;;;;28.93;46.87;96628.09;5065734;28;20032;-78
2021/08/12 08:40:32;;;;;;;6.90;3.88;;;;;;;28.50;46.59;96630.09;5064365;28;20033;-78
2021/08/12 08:43:01;;;;;;;7.22;4.25;;;;;;;27.78;49.25;96635.06;5072142;28;20028;-77
2021/08/12 08:45:28;;;;;;;10.32;4.55;;;;;;;28.82;46.40;96622.63;5048598;28;20033;-77
2021/08/12 08:47:56;;;;;;;5.78;3.33;;;;;;;29.80;44.08;96631.75;5063786;28;20261;-80
2021/08/12 08:50:31;;;;;;;6.15;3.58;;;;;;;29.19;44.28;96629.78;5070892;28;20768;-79
2021/08/12 08:52:58;;;;;;;6.50;3.75;;;;;;;28.99;44.91;96627.03;5064913;28;20032;-79
2021/08/12 08:55:24;;;;;;;8.02;3.97;;;;;;;29.50;44.09;96618.97;5067138;28;20036;-79
2021/08/12 08:57:52;;;;;;;6.82;3.55;;;;;;;27.91;47.45;96618.38;5071408;28;20025;-79
2021/08/12 09:00:18;;;;;;;6.18;3.75;;;;;;;28.33;46.64;96612.13;5079913;28;20036;-79
2021/08/12 09:02:45;;;;;;;7.28;3.72;;;;;;;29.39;44.56;96618.19;5065311;28;20424;-80
2021/08/12 09:05:11;;;;;;;9.18;4.13;;;;;;;29.87;43.36;96609.78;5064849;28;20066;-80
2021/08/12 09:07:38;;;;;;;7.03;3.95;;;;;;;29.25;44.11;96609.75;5050602;28;20056;-77
2021/08/12 09:10:04;;;;;;;9.30;3.90;;;;;;;30.10;42.62;96611.09;5070443;28;20040;-77
2021/08/12 09:12:31;;;;;;;10.75;4.43;;;;;;;29.87;42.52;96618.72;5061092;28;20038;-76
2021/08/12 09:15:09;;;;;;;9.70;3.92;;;;;;;29.64;43.29;96614.66;5070523;28;20612;-76
2021/08/12 09:17:36;;;;;;;7.75;3.72;;;;;;;29.61;43.63;96609.78;5048686;28;20249;-79
2021/08/12 09:20:13;;;;;;;7.75;3.90;;;;;;;29.84;43.89;96616.56;5056607;28;20557;-76
2021/08/12 09:22:57;;;;;;;6.90;3.92;;;;;;;28.63;46.31;96614.19;5057177;28;20029;-76
2021/08/12 09:25:44;;;;;;;7.88;4.18;;;;;;;29.56;44.25;96617.91;5056555;28;20033;-76
2021/08/12 09:28:24;;;;;;;7.57;4.43;;;;;;;29.00;45.11;96615.13;5047100;28;20032;-77
2021/08/12 09:30:49;;;;;;;8.88;4.55;;;;;;;30.44;42.60;96605.88;5075080;28;20040;-76
2021/08/12 09:33:17;;;;;;;7.68;4.63;;;;;;;30.45;41.91;96615.63;5061333;28;20669;-76
2021/08/12 09:35:43;;;;;;;7.75;4.53;;;;;;;30.84;41.73;96609.53;5078568;28;20050;-76
2021/08/12 09:38:12;;;;;;;8.60;4.03;;;;;;;30.71;40.10;96609.00;5067500;28;20393;-76
2021/08/12 09:40:38;;;;;;;7.00;4.32;;;;;;;31.95;38.35;96612.53;5063253;28;20020;-76
2021/08/12 09:43:06;;;;;;;9.40;4.57;;;;;;;32.13;38.75;96603.66;5067501;28;20028;-76
2021/08/12 09:45:33;;;;;;;13.50;4.55;;;;;;;29.60;43.60;96619.00;5069046;28;20047;-76
2021/08/12 09:48:16;;;;;;;9.43;4.70;;;;;;;30.13;42.59;96622.22;5062359;28;20017;-76
2021/08/12 09:50:59;;;;;;;9.10;4.70;;;;;;;32.47;38.59;96600.06;5072638;28;20108;-76
2021/08/12 09:53:25;;;;;;;13.38;10.82;;;;;;;33.07;36.67;96603.09;5058486;28;20876;-75
2021/08/12 09:55:52;;;;;;;10.18;5.47;;;;;;;33.16;36.50;96594.25;5059297;28;20483;-76
2021/08/12 09:58:19;;;;;;;11.65;4.40;;;;;;;31.96;38.08;96597.88;5072669;28;20787;-77
2021/08/12 10:00:49;;;;;;;7.50;4.10;;;;;;;32.11;37.60;96599.59;5059806;28;20550;-76
2021/08/12 10:03:23;;;;;;;7.43;4.45;;;;;;;32.85;36.48;96595.47;5066717;28;20040;-78
2021/08/12 10:05:51;;;;;;;9.63;4.80;;;;;;;30.53;40.56;96598.78;5061725;28;20159;-77
2021/08/12 10:08:32;;;;;;;7.22;4.57;;;;;;;31.80;37.09;96597.16;5068963;28;20032;-78
2021/08/12 10:11:15;;;;;;;8.50;4.60;;;;;;;31.66;38.01;96602.47;5067269;28;20024;-77
2021/08/12 10:13:41;;;;;;;9.05;4.93;;;;;;;32.13;36.52;96597.41;5065513;28;20562;-77
2021/08/12 10:16:07;;;;;;;6.75;4.55;;;;;;;32.72;35.22;96596.19;5072354;28;20025;-78
2021/08/12 10:18:37;;;;;;;9.55;4.70;;;;;;;32.93;34.11;96587.72;5053239;28;20035;-77
2021/08/12 10:21:03;;;;;;;14.40;4.95;;;;;;;33.61;33.55;96584.56;5058923;28;20483;-78
2021/08/12 10:23:31;;;;;;;7.90;4.57;;;;;;;32.77;35.47;96584.44;5060428;28;20787;-78
2021/08/12 10:26:01;;;;;;;7.28;4.82;;;;;;;31.42;38.74;96590.69;5064221;28;20032;-78
2021/08/12 10:28:30;;;;;;;12.00;5.18;;;;;;;30.99;40.02;96598.59;5065563;28;20032;-77
2021/08/12 10:30:56;;;;;;;7.78;4.80;;;;;;;32.53;35.92;96582.56;5071276;28;20032;-78
2021/08/12 10:33:22;;;;;;;7.28;5.28;;;;;;;32.72;35.86;96582.56;5071240;28;20062;-76
2021/08/12 10:35:50;;;;;;;7.43;4.53;;;;;;;32.71;36.76;96582.88;5069951;28;20032;-78
2021/08/12 10:38:16;;;;;;;9.93;4.35;;;;;;;32.29;37.18;96584.44;5059531;28;20041;-78
2021/08/12 10:40:43;;;;;;;8.90;4.85;;;;;;;33.41;36.01;96579.44;5064886;28;20059;-78
2021/08/12 10:43:17;;;;;;;8.38;4.50;;;;;;;32.83;36.83;96581.34;5075666;28;20024;-77
2021/08/12 10:45:53;;;;;;;8.98;4.32;;;;;;;32.02;37.78;96587.72;5090604;28;20648;-76
2021/08/12 10:48:19;;;;;;;5.85;4.55;;;;;;;32.32;36.92;96576.50;5080078;28;20096;-77
2021/08/12 10:51:00;;;;;;;10.98;4.75;;;;;;;33.02;35.41;96581.34;5065710;28;20051;-76
2021/08/12 10:53:25;;;;;;;9.27;4.40;;;;;;;33.58;34.41;96584.34;5042308;28;20032;-75
2021/08/12 10:55:51;;;;;;;9.73;4.60;;;;;;;32.60;36.68;96583.00;5056871;28;20100;-76
2021/08/12 11:00:53;;;;;;;9.15;4.72;;;;;;;32.94;35.11;96582.00;5063278;28;20039;-77
2021/08/12 11:03:34;;;;;;;9.23;5.13;;;;;;;31.32;38.39;96588.00;5056788;28;20033;-77
2021/08/12 11:06:06;;;;;;;7.45;5.00;;;;;;;32.37;35.84;96583.81;5068475;28;20032;-78
2021/08/12 11:11:16;;;;;;;9.57;5.05;;;;;;;30.91;38.06;96591.81;5082467;28;20056;-77
2021/08/12 11:13:42;;;;;;;11.45;5.28;;;;;;;32.10;36.30;96589.84;5061460;28;20071;-76
2021/08/12 11:16:09;;;;;;;12.82;4.80;;;;;;;33.23;34.15;96594.69;5061284;28;20059;-77
2021/08/12 11:18:49;;;;;;;9.55;4.85;;;;;;;32.67;35.23;96590.00;5061054;28;20040;-77
2021/08/12 11:21:33;;;;;;;7.82;4.90;;;;;;;32.77;35.72;96592.59;5064093;28;20047;-77
2021/08/12 11:24:01;;;;;;;8.00;5.07;;;;;;;32.18;35.25;96591.91;5051806;28;20040;-76
2021/08/12 11:26:45;;;;;;;7.72;4.25;;;;;;;33.21;35.00;96591.47;5060627;28;20025;-76
2021/08/12 11:29:25;;;;;;;9.48;5.05;;;;;;;34.01;34.05;96580.34;5074406;28;20031;-77
2021/08/12 11:31:55;;;;;;;6.17;4.50;;;;;;;34.65;32.48;96579.66;5065378;28;20389;-76
2021/08/12 11:34:32;;;;;;;5.90;4.00;;;;;;;35.04;31.72;96576.34;5045681;28;20550;-77
2021/08/12 11:37:20;;;;;;;9.73;4.40;;;;;;;33.57;33.08;96578.09;5069039;28;20024;-77
2021/08/12 11:39:59;;;;;;;7.75;5.15;;;;;;;33.25;34.27;96570.66;5062957;28;20032;-77